sensor_id;sensor_type;location;lat;lon;timestamp;P1;durP1;ratioP1;P2;durP2;ratioP2
434;SDS011;204;48.942;9.256;2023-09-07T00:01:45;7.47;;;6.90;;
434;SDS011;204;48.942;9.256;2023-09-07T00:04:11;8.17;;;7.60;;
434;SDS011;204;48.942;9.256;2023-09-07T00:06:37;7.63;;;7.00;;
434;SDS011;204;48.942;9.256;2023-09-07T00:09:04;7.30;;;6.90;;
434;SDS011;204;48.942;9.256;2023-09-07T00:11:30;7.60;;;6.68;;
434;SDS011;204;48.942;9.256;2023-09-07T00:13:56;6.70;;;6.30;;
434;SDS011;204;48.942;9.256;2023-09-07T00:16:24;9.65;;;7.22;;
434;SDS011;204;48.942;9.256;2023-09-07T00:18:50;7.53;;;7.13;;
434;SDS011;204;48.942;9.256;2023-09-07T00:21:15;9.93;;;6.73;;
434;SDS011;204;48.942;9.256;2023-09-07T00:23:41;8.10;;;7.70;;
434;SDS011;204;48.942;9.256;2023-09-07T00:26:07;8.07;;;7.50;;
434;SDS011;204;48.942;9.256;2023-09-07T00:28:33;8.20;;;7.80;;
434;SDS011;204;48.942;9.256;2023-09-07T00:30:58;8.10;;;7.70;;
434;SDS011;204;48.942;9.256;2023-09-07T00:33:24;9.50;;;7.93;;
434;SDS011;204;48.942;9.256;2023-09-07T00:35:50;8.03;;;7.63;;
434;SDS011;204;48.942;9.256;2023-09-07T00:38:15;11.43;;;8.37;;
434;SDS011;204;48.942;9.256;2023-09-07T00:40:43;8.80;;;7.70;;
434;SDS011;204;48.942;9.256;2023-09-07T00:43:12;10.83;;;7.87;;
434;SDS011;204;48.942;9.256;2023-09-07T00:45:38;9.80;;;8.83;;
434;SDS011;204;48.942;9.256;2023-09-07T00:48:05;13.30;;;9.27;;
434;SDS011;204;48.942;9.256;2023-09-07T00:50:30;11.38;;;9.88;;
434;SDS011;204;48.942;9.256;2023-09-07T00:52:56;10.33;;;9.57;;
434;SDS011;204;48.942;9.256;2023-09-07T00:55:24;9.60;;;9.10;;
434;SDS011;204;48.942;9.256;2023-09-07T00:57:52;10.18;;;9.00;;
434;SDS011;204;48.942;9.256;2023-09-07T01:00:18;9.57;;;8.63;;
434;SDS011;204;48.942;9.256;2023-09-07T01:02:44;10.73;;;9.23;;
434;SDS011;204;48.942;9.256;2023-09-07T01:05:09;10.20;;;9.20;;
434;SDS011;204;48.942;9.256;2023-09-07T01:07:46;8.70;;;8.20;;
434;SDS011;204;48.942;9.256;2023-09-07T01:10:16;9.60;;;8.25;;
434;SDS011;204;48.942;9.256;2023-09-07T01:12:43;8.98;;;8.48;;
434;SDS011;204;48.942;9.256;2023-09-07T01:15:09;8.68;;;8.18;;
434;SDS011;204;48.942;9.256;2023-09-07T01:17:35;8.60;;;7.83;;
434;SDS011;204;48.942;9.256;2023-09-07T01:20:03;9.50;;;9.00;;
434;SDS011;204;48.942;9.256;2023-09-07T01:22:36;8.93;;;8.43;;
434;SDS011;204;48.942;9.256;2023-09-07T01:25:03;7.85;;;7.45;;
434;SDS011;204;48.942;9.256;2023-09-07T01:27:31;8.27;;;7.85;;
434;SDS011;204;48.942;9.256;2023-09-07T01:29:58;7.88;;;7.47;;
434;SDS011;204;48.942;9.256;2023-09-07T01:32:23;8.80;;;8.30;;
434;SDS011;204;48.942;9.256;2023-09-07T01:34:52;8.52;;;8.05;;
434;SDS011;204;48.942;9.256;2023-09-07T01:37:22;8.95;;;8.45;;
434;SDS011;204;48.942;9.256;2023-09-07T01:39:47;8.67;;;8.17;;
434;SDS011;204;48.942;9.256;2023-09-07T01:42:14;8.38;;;7.93;;
434;SDS011;204;48.942;9.256;2023-09-07T01:44:39;7.63;;;7.23;;
434;SDS011;204;48.942;9.256;2023-09-07T01:47:05;8.27;;;7.50;;
434;SDS011;204;48.942;9.256;2023-09-07T01:49:31;9.30;;;8.80;;
434;SDS011;204;48.942;9.256;2023-09-07T01:51:56;9.10;;;8.60;;
434;SDS011;204;48.942;9.256;2023-09-07T01:54:22;10.10;;;7.97;;
434;SDS011;204;48.942;9.256;2023-09-07T01:56:47;8.30;;;7.87;;
434;SDS011;204;48.942;9.256;2023-09-07T01:59:13;8.07;;;7.67;;
434;SDS011;204;48.942;9.256;2023-09-07T02:01:39;8.77;;;8.27;;
434;SDS011;204;48.942;9.256;2023-09-07T02:04:05;11.18;;;8.95;;
434;SDS011;204;48.942;9.256;2023-09-07T02:06:31;8.50;;;8.00;;
434;SDS011;204;48.942;9.256;2023-09-07T02:08:56;9.27;;;7.97;;
434;SDS011;204;48.942;9.256;2023-09-07T02:11:22;9.70;;;8.53;;
434;SDS011;204;48.942;9.256;2023-09-07T02:13:48;8.03;;;7.63;;
434;SDS011;204;48.942;9.256;2023-09-07T02:16:13;7.47;;;7.07;;
434;SDS011;204;48.942;9.256;2023-09-07T02:18:39;8.63;;;7.43;;
434;SDS011;204;48.942;9.256;2023-09-07T02:21:08;7.40;;;7.00;;
434;SDS011;204;48.942;9.256;2023-09-07T02:23:34;8.57;;;8.10;;
434;SDS011;204;48.942;9.256;2023-09-07T02:26:01;7.45;;;7.05;;
434;SDS011;204;48.942;9.256;2023-09-07T02:28:27;7.83;;;6.90;;
434;SDS011;204;48.942;9.256;2023-09-07T02:30:53;10.30;;;7.90;;
434;SDS011;204;48.942;9.256;2023-09-07T02:33:19;8.07;;;7.33;;
434;SDS011;204;48.942;9.256;2023-09-07T02:35:44;9.07;;;8.10;;
434;SDS011;204;48.942;9.256;2023-09-07T02:38:10;8.33;;;7.13;;
434;SDS011;204;48.942;9.256;2023-09-07T02:40:42;12.17;;;9.07;;
434;SDS011;204;48.942;9.256;2023-09-07T02:43:08;7.25;;;6.85;;
434;SDS011;204;48.942;9.256;2023-09-07T02:45:34;7.97;;;7.57;;
434;SDS011;204;48.942;9.256;2023-09-07T02:48:00;9.00;;;7.00;;
434;SDS011;204;48.942;9.256;2023-09-07T02:50:25;7.87;;;7.47;;
434;SDS011;204;48.942;9.256;2023-09-07T02:52:52;8.15;;;7.75;;
434;SDS011;204;48.942;9.256;2023-09-07T02:55:18;9.77;;;9.27;;
434;SDS011;204;48.942;9.256;2023-09-07T02:57:43;12.90;;;9.27;;
434;SDS011;204;48.942;9.256;2023-09-07T03:00:09;11.20;;;9.33;;
434;SDS011;204;48.942;9.256;2023-09-07T03:02:36;10.40;;;9.88;;
434;SDS011;204;48.942;9.256;2023-09-07T03:05:02;10.93;;;9.23;;
434;SDS011;204;48.942;9.256;2023-09-07T03:07:30;11.88;;;10.60;;
434;SDS011;204;48.942;9.256;2023-09-07T03:09:57;11.40;;;10.80;;
434;SDS011;204;48.942;9.256;2023-09-07T03:12:23;10.77;;;10.17;;
434;SDS011;204;48.942;9.256;2023-09-07T03:14:48;11.10;;;10.40;;
434;SDS011;204;48.942;9.256;2023-09-07T03:17:15;10.60;;;10.00;;
434;SDS011;204;48.942;9.256;2023-09-07T03:19:41;11.18;;;9.65;;
434;SDS011;204;48.942;9.256;2023-09-07T03:22:07;10.80;;;10.10;;
434;SDS011;204;48.942;9.256;2023-09-07T03:24:33;12.73;;;9.65;;
434;SDS011;204;48.942;9.256;2023-09-07T03:26:59;13.03;;;10.57;;
434;SDS011;204;48.942;9.256;2023-09-07T03:29:25;10.67;;;9.50;;
434;SDS011;204;48.942;9.256;2023-09-07T03:31:50;12.00;;;10.30;;
434;SDS011;204;48.942;9.256;2023-09-07T03:34:16;11.10;;;8.90;;
434;SDS011;204;48.942;9.256;2023-09-07T03:36:41;10.57;;;10.00;;
434;SDS011;204;48.942;9.256;2023-09-07T03:39:07;10.80;;;9.67;;
434;SDS011;204;48.942;9.256;2023-09-07T03:41:33;13.03;;;9.60;;
434;SDS011;204;48.942;9.256;2023-09-07T03:43:59;9.50;;;9.00;;
434;SDS011;204;48.942;9.256;2023-09-07T03:46:26;10.03;;;9.53;;
434;SDS011;204;48.942;9.256;2023-09-07T03:48:51;10.40;;;9.15;;
434;SDS011;204;48.942;9.256;2023-09-07T03:51:17;9.70;;;9.20;;
434;SDS011;204;48.942;9.256;2023-09-07T03:53:43;9.03;;;8.53;;
434;SDS011;204;48.942;9.256;2023-09-07T03:56:08;10.07;;;9.60;;
434;SDS011;204;48.942;9.256;2023-09-07T03:58:34;9.33;;;8.83;;
434;SDS011;204;48.942;9.256;2023-09-07T04:00:59;9.37;;;8.87;;
434;SDS011;204;48.942;9.256;2023-09-07T04:03:25;10.90;;;9.53;;
434;SDS011;204;48.942;9.256;2023-09-07T04:05:51;9.50;;;9.00;;
434;SDS011;204;48.942;9.256;2023-09-07T04:08:16;10.30;;;9.70;;
434;SDS011;204;48.942;9.256;2023-09-07T04:10:42;8.93;;;8.43;;
434;SDS011;204;48.942;9.256;2023-09-07T04:13:08;10.17;;;9.67;;
434;SDS011;204;48.942;9.256;2023-09-07T04:15:34;9.93;;;9.43;;
434;SDS011;204;48.942;9.256;2023-09-07T04:18:06;8.27;;;7.90;;
434;SDS011;204;48.942;9.256;2023-09-07T04:20:31;9.53;;;9.03;;
434;SDS011;204;48.942;9.256;2023-09-07T04:22:57;9.17;;;8.70;;
434;SDS011;204;48.942;9.256;2023-09-07T04:25:23;9.70;;;9.10;;
434;SDS011;204;48.942;9.256;2023-09-07T04:27:48;13.53;;;10.00;;
434;SDS011;204;48.942;9.256;2023-09-07T04:30:14;11.17;;;9.20;;
434;SDS011;204;48.942;9.256;2023-09-07T04:32:39;9.77;;;9.20;;
434;SDS011;204;48.942;9.256;2023-09-07T04:35:05;10.43;;;8.20;;
434;SDS011;204;48.942;9.256;2023-09-07T04:37:32;9.05;;;8.55;;
434;SDS011;204;48.942;9.256;2023-09-07T04:39:57;9.20;;;8.70;;
434;SDS011;204;48.942;9.256;2023-09-07T04:42:23;11.23;;;8.23;;
434;SDS011;204;48.942;9.256;2023-09-07T04:44:51;11.52;;;10.40;;
434;SDS011;204;48.942;9.256;2023-09-07T04:47:16;11.20;;;9.10;;
434;SDS011;204;48.942;9.256;2023-09-07T04:49:42;10.13;;;9.40;;
434;SDS011;204;48.942;9.256;2023-09-07T04:52:13;10.75;;;9.88;;
434;SDS011;204;48.942;9.256;2023-09-07T04:54:38;10.10;;;9.60;;
434;SDS011;204;48.942;9.256;2023-09-07T04:57:04;10.60;;;9.63;;
434;SDS011;204;48.942;9.256;2023-09-07T04:59:29;9.63;;;9.13;;
434;SDS011;204;48.942;9.256;2023-09-07T05:01:58;10.33;;;9.83;;
434;SDS011;204;48.942;9.256;2023-09-07T05:04:24;11.30;;;10.70;;
434;SDS011;204;48.942;9.256;2023-09-07T05:06:50;13.27;;;11.43;;
434;SDS011;204;48.942;9.256;2023-09-07T05:09:15;11.07;;;10.47;;
434;SDS011;204;48.942;9.256;2023-09-07T05:11:41;11.53;;;10.93;;
434;SDS011;204;48.942;9.256;2023-09-07T05:14:06;10.87;;;10.13;;
434;SDS011;204;48.942;9.256;2023-09-07T05:16:32;17.83;;;10.73;;
434;SDS011;204;48.942;9.256;2023-09-07T05:18:57;11.57;;;10.70;;
434;SDS011;204;48.942;9.256;2023-09-07T05:21:23;11.13;;;10.53;;
434;SDS011;204;48.942;9.256;2023-09-07T05:23:48;13.40;;;11.37;;
434;SDS011;204;48.942;9.256;2023-09-07T05:26:14;12.97;;;12.27;;
434;SDS011;204;48.942;9.256;2023-09-07T05:28:45;12.73;;;11.50;;
434;SDS011;204;48.942;9.256;2023-09-07T05:31:10;11.63;;;11.03;;
434;SDS011;204;48.942;9.256;2023-09-07T05:33:36;14.13;;;12.23;;
434;SDS011;204;48.942;9.256;2023-09-07T05:36:02;14.83;;;12.70;;
434;SDS011;204;48.942;9.256;2023-09-07T05:38:27;11.53;;;10.93;;
434;SDS011;204;48.942;9.256;2023-09-07T05:40:53;10.50;;;9.93;;
434;SDS011;204;48.942;9.256;2023-09-07T05:43:19;12.00;;;10.17;;
434;SDS011;204;48.942;9.256;2023-09-07T05:45:45;11.57;;;10.73;;
434;SDS011;204;48.942;9.256;2023-09-07T05:48:11;14.23;;;11.40;;
434;SDS011;204;48.942;9.256;2023-09-07T05:50:37;12.57;;;11.47;;
434;SDS011;204;48.942;9.256;2023-09-07T05:53:06;18.38;;;12.80;;
434;SDS011;204;48.942;9.256;2023-09-07T05:55:31;14.10;;;12.47;;
434;SDS011;204;48.942;9.256;2023-09-07T05:57:57;12.90;;;10.73;;
434;SDS011;204;48.942;9.256;2023-09-07T06:00:23;37.33;;;21.70;;
434;SDS011;204;48.942;9.256;2023-09-07T06:02:49;16.57;;;12.07;;
434;SDS011;204;48.942;9.256;2023-09-07T06:05:14;27.00;;;20.00;;
434;SDS011;204;48.942;9.256;2023-09-07T06:07:41;15.77;;;12.40;;
434;SDS011;204;48.942;9.256;2023-09-07T06:10:06;17.03;;;12.60;;
434;SDS011;204;48.942;9.256;2023-09-07T06:12:32;16.93;;;11.90;;
434;SDS011;204;48.942;9.256;2023-09-07T06:15:01;15.70;;;13.25;;
434;SDS011;204;48.942;9.256;2023-09-07T06:17:27;15.03;;;12.37;;
434;SDS011;204;48.942;9.256;2023-09-07T06:19:54;24.50;;;16.20;;
434;SDS011;204;48.942;9.256;2023-09-07T06:22:20;22.83;;;16.77;;
434;SDS011;204;48.942;9.256;2023-09-07T06:24:45;14.40;;;12.00;;
434;SDS011;204;48.942;9.256;2023-09-07T06:27:11;13.07;;;11.20;;
434;SDS011;204;48.942;9.256;2023-09-07T06:29:36;21.53;;;15.53;;
434;SDS011;204;48.942;9.256;2023-09-07T06:32:02;31.70;;;14.90;;
434;SDS011;204;48.942;9.256;2023-09-07T06:34:28;13.97;;;11.30;;
434;SDS011;204;48.942;9.256;2023-09-07T06:36:53;17.10;;;10.87;;
434;SDS011;204;48.942;9.256;2023-09-07T06:39:19;22.93;;;14.10;;
434;SDS011;204;48.942;9.256;2023-09-07T06:41:45;24.50;;;14.53;;
434;SDS011;204;48.942;9.256;2023-09-07T06:44:11;12.63;;;10.50;;
434;SDS011;204;48.942;9.256;2023-09-07T06:46:37;10.87;;;8.77;;
434;SDS011;204;48.942;9.256;2023-09-07T06:49:02;7.93;;;7.53;;
434;SDS011;204;48.942;9.256;2023-09-07T06:51:29;8.00;;;7.60;;
434;SDS011;204;48.942;9.256;2023-09-07T06:53:55;7.53;;;7.13;;
434;SDS011;204;48.942;9.256;2023-09-07T06:56:21;7.67;;;7.27;;
434;SDS011;204;48.942;9.256;2023-09-07T06:58:46;8.07;;;7.10;;
434;SDS011;204;48.942;9.256;2023-09-07T07:01:12;8.23;;;6.50;;
434;SDS011;204;48.942;9.256;2023-09-07T07:03:37;7.10;;;6.70;;
434;SDS011;204;48.942;9.256;2023-09-07T07:06:03;8.00;;;7.60;;
434;SDS011;204;48.942;9.256;2023-09-07T07:08:29;7.10;;;6.70;;
434;SDS011;204;48.942;9.256;2023-09-07T07:10:54;7.87;;;6.90;;
434;SDS011;204;48.942;9.256;2023-09-07T07:13:20;5.80;;;5.50;;
434;SDS011;204;48.942;9.256;2023-09-07T07:15:45;7.30;;;5.67;;
434;SDS011;204;48.942;9.256;2023-09-07T07:18:11;7.00;;;6.60;;
434;SDS011;204;48.942;9.256;2023-09-07T07:20:37;9.07;;;6.10;;
434;SDS011;204;48.942;9.256;2023-09-07T07:23:03;8.70;;;6.70;;
434;SDS011;204;48.942;9.256;2023-09-07T07:25:31;6.87;;;6.47;;
434;SDS011;204;48.942;9.256;2023-09-07T07:28:01;7.13;;;6.70;;
434;SDS011;204;48.942;9.256;2023-09-07T07:30:30;7.90;;;6.57;;
434;SDS011;204;48.942;9.256;2023-09-07T07:33:00;5.90;;;5.40;;
434;SDS011;204;48.942;9.256;2023-09-07T07:35:26;7.53;;;6.53;;
434;SDS011;204;48.942;9.256;2023-09-07T07:37:51;6.43;;;6.03;;
434;SDS011;204;48.942;9.256;2023-09-07T07:40:17;6.73;;;6.33;;
434;SDS011;204;48.942;9.256;2023-09-07T07:42:43;6.10;;;5.77;;
434;SDS011;204;48.942;9.256;2023-09-07T07:45:09;7.37;;;5.93;;
434;SDS011;204;48.942;9.256;2023-09-07T07:47:35;7.00;;;5.13;;
434;SDS011;204;48.942;9.256;2023-09-07T07:50:00;6.13;;;5.83;;
434;SDS011;204;48.942;9.256;2023-09-07T07:52:26;6.43;;;6.03;;
434;SDS011;204;48.942;9.256;2023-09-07T07:54:52;5.60;;;5.37;;
434;SDS011;204;48.942;9.256;2023-09-07T07:57:18;6.00;;;5.70;;
434;SDS011;204;48.942;9.256;2023-09-07T07:59:44;5.60;;;5.30;;
434;SDS011;204;48.942;9.256;2023-09-07T08:02:09;5.20;;;4.90;;
434;SDS011;204;48.942;9.256;2023-09-07T08:04:35;5.50;;;5.20;;
434;SDS011;204;48.942;9.256;2023-09-07T08:07:00;5.83;;;5.53;;
434;SDS011;204;48.942;9.256;2023-09-07T08:09:30;5.60;;;5.13;;
434;SDS011;204;48.942;9.256;2023-09-07T08:11:56;7.03;;;5.47;;
434;SDS011;204;48.942;9.256;2023-09-07T08:14:23;6.33;;;5.70;;
434;SDS011;204;48.942;9.256;2023-09-07T08:16:50;6.63;;;6.23;;
434;SDS011;204;48.942;9.256;2023-09-07T08:19:15;6.90;;;5.70;;
434;SDS011;204;48.942;9.256;2023-09-07T08:21:42;6.80;;;5.93;;
434;SDS011;204;48.942;9.256;2023-09-07T08:24:08;6.10;;;5.80;;
434;SDS011;204;48.942;9.256;2023-09-07T08:26:35;5.20;;;4.90;;
434;SDS011;204;48.942;9.256;2023-09-07T08:29:01;5.90;;;5.60;;
434;SDS011;204;48.942;9.256;2023-09-07T08:31:31;5.60;;;5.30;;
434;SDS011;204;48.942;9.256;2023-09-07T08:34:00;6.47;;;5.43;;
434;SDS011;204;48.942;9.256;2023-09-07T08:36:30;7.07;;;6.67;;
434;SDS011;204;48.942;9.256;2023-09-07T08:38:59;6.90;;;6.50;;
434;SDS011;204;48.942;9.256;2023-09-07T08:41:36;9.47;;;6.20;;
434;SDS011;204;48.942;9.256;2023-09-07T08:44:16;6.57;;;6.17;;
434;SDS011;204;48.942;9.256;2023-09-07T08:46:46;5.97;;;5.70;;
434;SDS011;204;48.942;9.256;2023-09-07T08:49:14;7.37;;;6.20;;
434;SDS011;204;48.942;9.256;2023-09-07T08:51:44;8.67;;;6.37;;
434;SDS011;204;48.942;9.256;2023-09-07T08:54:10;10.07;;;5.87;;
434;SDS011;204;48.942;9.256;2023-09-07T08:56:37;7.10;;;6.00;;
434;SDS011;204;48.942;9.256;2023-09-07T08:59:03;6.77;;;5.67;;
434;SDS011;204;48.942;9.256;2023-09-07T09:01:29;7.40;;;5.33;;
434;SDS011;204;48.942;9.256;2023-09-07T09:03:57;8.33;;;6.60;;
434;SDS011;204;48.942;9.256;2023-09-07T09:06:23;7.40;;;6.73;;
434;SDS011;204;48.942;9.256;2023-09-07T09:08:49;8.10;;;7.37;;
434;SDS011;204;48.942;9.256;2023-09-07T09:11:19;7.83;;;6.20;;
434;SDS011;204;48.942;9.256;2023-09-07T09:13:46;6.90;;;5.90;;
434;SDS011;204;48.942;9.256;2023-09-07T09:16:13;10.27;;;6.23;;
434;SDS011;204;48.942;9.256;2023-09-07T09:18:53;6.70;;;6.27;;
434;SDS011;204;48.942;9.256;2023-09-07T09:21:20;10.10;;;6.00;;
434;SDS011;204;48.942;9.256;2023-09-07T09:23:48;6.60;;;5.33;;
434;SDS011;204;48.942;9.256;2023-09-07T09:26:15;7.33;;;6.87;;
434;SDS011;204;48.942;9.256;2023-09-07T09:28:41;6.20;;;5.50;;
434;SDS011;204;48.942;9.256;2023-09-07T09:31:08;5.73;;;5.53;;
434;SDS011;204;48.942;9.256;2023-09-07T09:33:38;6.60;;;6.20;;
434;SDS011;204;48.942;9.256;2023-09-07T09:36:12;6.60;;;6.20;;
434;SDS011;204;48.942;9.256;2023-09-07T09:38:37;5.83;;;5.50;;
434;SDS011;204;48.942;9.256;2023-09-07T09:41:03;5.33;;;5.03;;
434;SDS011;204;48.942;9.256;2023-09-07T09:43:30;8.87;;;6.83;;
434;SDS011;204;48.942;9.256;2023-09-07T09:45:55;6.33;;;5.80;;
434;SDS011;204;48.942;9.256;2023-09-07T09:48:23;5.67;;;5.37;;
434;SDS011;204;48.942;9.256;2023-09-07T09:50:49;6.53;;;5.87;;
434;SDS011;204;48.942;9.256;2023-09-07T09:53:19;5.90;;;5.60;;
434;SDS011;204;48.942;9.256;2023-09-07T09:55:49;5.83;;;5.57;;
434;SDS011;204;48.942;9.256;2023-09-07T09:58:17;6.10;;;5.50;;
434;SDS011;204;48.942;9.256;2023-09-07T10:00:43;6.10;;;5.37;;
434;SDS011;204;48.942;9.256;2023-09-07T10:03:20;6.73;;;5.53;;
434;SDS011;204;48.942;9.256;2023-09-07T10:05:55;8.63;;;7.40;;
434;SDS011;204;48.942;9.256;2023-09-07T10:08:21;6.73;;;6.13;;
434;SDS011;204;48.942;9.256;2023-09-07T10:10:52;5.57;;;5.27;;
434;SDS011;204;48.942;9.256;2023-09-07T10:13:31;8.20;;;6.70;;
434;SDS011;204;48.942;9.256;2023-09-07T10:16:04;8.63;;;8.13;;
434;SDS011;204;48.942;9.256;2023-09-07T10:18:35;6.23;;;5.90;;
434;SDS011;204;48.942;9.256;2023-09-07T10:21:02;5.90;;;5.33;;
434;SDS011;204;48.942;9.256;2023-09-07T10:23:38;13.70;;;7.83;;
434;SDS011;204;48.942;9.256;2023-09-07T10:26:09;6.97;;;6.00;;
434;SDS011;204;48.942;9.256;2023-09-07T10:28:43;8.97;;;7.30;;
434;SDS011;204;48.942;9.256;2023-09-07T10:31:19;8.20;;;7.40;;
434;SDS011;204;48.942;9.256;2023-09-07T10:33:49;7.00;;;6.60;;
434;SDS011;204;48.942;9.256;2023-09-07T10:36:25;6.10;;;5.80;;
434;SDS011;204;48.942;9.256;2023-09-07T10:38:52;4.90;;;4.60;;
434;SDS011;204;48.942;9.256;2023-09-07T10:41:19;6.20;;;5.90;;
434;SDS011;204;48.942;9.256;2023-09-07T10:43:48;5.83;;;4.90;;
434;SDS011;204;48.942;9.256;2023-09-07T10:46:19;9.00;;;6.70;;
434;SDS011;204;48.942;9.256;2023-09-07T10:48:48;7.40;;;5.23;;
434;SDS011;204;48.942;9.256;2023-09-07T10:51:17;6.00;;;5.70;;
434;SDS011;204;48.942;9.256;2023-09-07T10:53:44;5.90;;;5.60;;
434;SDS011;204;48.942;9.256;2023-09-07T10:56:09;8.63;;;7.90;;
434;SDS011;204;48.942;9.256;2023-09-07T10:58:36;6.00;;;5.70;;
434;SDS011;204;48.942;9.256;2023-09-07T11:01:07;5.10;;;4.80;;
434;SDS011;204;48.942;9.256;2023-09-07T11:03:33;8.00;;;5.57;;
434;SDS011;204;48.942;9.256;2023-09-07T11:06:03;50.63;;;22.90;;
434;SDS011;204;48.942;9.256;2023-09-07T11:08:33;6.33;;;5.97;;
434;SDS011;204;48.942;9.256;2023-09-07T11:11:00;6.23;;;5.27;;
434;SDS011;204;48.942;9.256;2023-09-07T11:13:29;7.60;;;5.70;;
434;SDS011;204;48.942;9.256;2023-09-07T11:15:56;7.90;;;6.27;;
434;SDS011;204;48.942;9.256;2023-09-07T11:18:22;5.40;;;5.10;;
434;SDS011;204;48.942;9.256;2023-09-07T11:20:50;5.93;;;5.63;;
434;SDS011;204;48.942;9.256;2023-09-07T11:23:17;7.13;;;5.50;;
434;SDS011;204;48.942;9.256;2023-09-07T11:25:44;6.00;;;5.03;;
434;SDS011;204;48.942;9.256;2023-09-07T11:28:11;5.67;;;5.30;;
434;SDS011;204;48.942;9.256;2023-09-07T11:30:37;5.00;;;4.70;;
434;SDS011;204;48.942;9.256;2023-09-07T11:33:15;5.17;;;4.67;;
434;SDS011;204;48.942;9.256;2023-09-07T11:35:41;5.00;;;4.70;;
434;SDS011;204;48.942;9.256;2023-09-07T11:38:06;5.90;;;5.60;;
434;SDS011;204;48.942;9.256;2023-09-07T11:40:35;5.30;;;4.80;;
434;SDS011;204;48.942;9.256;2023-09-07T11:43:01;5.77;;;5.40;;
434;SDS011;204;48.942;9.256;2023-09-07T11:45:27;7.10;;;5.60;;
434;SDS011;204;48.942;9.256;2023-09-07T11:47:53;8.10;;;5.40;;
434;SDS011;204;48.942;9.256;2023-09-07T11:50:18;6.43;;;5.20;;
434;SDS011;204;48.942;9.256;2023-09-07T11:52:45;5.70;;;4.73;;
434;SDS011;204;48.942;9.256;2023-09-07T11:55:13;5.33;;;4.93;;
434;SDS011;204;48.942;9.256;2023-09-07T11:57:39;6.60;;;5.30;;
434;SDS011;204;48.942;9.256;2023-09-07T12:00:06;8.80;;;5.17;;
434;SDS011;204;48.942;9.256;2023-09-07T12:02:36;5.00;;;3.90;;
434;SDS011;204;48.942;9.256;2023-09-07T12:05:03;5.67;;;4.90;;
434;SDS011;204;48.942;9.256;2023-09-07T12:07:29;5.20;;;4.90;;
434;SDS011;204;48.942;9.256;2023-09-07T12:09:56;4.90;;;4.60;;
434;SDS011;204;48.942;9.256;2023-09-07T12:12:22;5.03;;;4.73;;
434;SDS011;204;48.942;9.256;2023-09-07T12:14:48;4.17;;;3.93;;
434;SDS011;204;48.942;9.256;2023-09-07T12:17:13;5.23;;;4.67;;
434;SDS011;204;48.942;9.256;2023-09-07T12:19:39;4.63;;;4.33;;
434;SDS011;204;48.942;9.256;2023-09-07T12:22:06;5.10;;;4.53;;
434;SDS011;204;48.942;9.256;2023-09-07T12:24:32;5.00;;;4.23;;
434;SDS011;204;48.942;9.256;2023-09-07T12:26:58;4.30;;;4.00;;
434;SDS011;204;48.942;9.256;2023-09-07T12:29:25;4.60;;;4.27;;
434;SDS011;204;48.942;9.256;2023-09-07T12:31:50;5.90;;;4.83;;
434;SDS011;204;48.942;9.256;2023-09-07T12:34:16;5.27;;;4.97;;
434;SDS011;204;48.942;9.256;2023-09-07T12:36:42;5.87;;;4.17;;
434;SDS011;204;48.942;9.256;2023-09-07T12:39:07;4.80;;;4.50;;
434;SDS011;204;48.942;9.256;2023-09-07T12:41:33;7.30;;;4.70;;
434;SDS011;204;48.942;9.256;2023-09-07T12:43:59;7.00;;;4.97;;
434;SDS011;204;48.942;9.256;2023-09-07T12:46:25;5.13;;;4.53;;
434;SDS011;204;48.942;9.256;2023-09-07T12:48:51;5.13;;;4.87;;
434;SDS011;204;48.942;9.256;2023-09-07T12:51:16;11.67;;;5.67;;
434;SDS011;204;48.942;9.256;2023-09-07T12:53:42;10.37;;;5.03;;
434;SDS011;204;48.942;9.256;2023-09-07T12:56:08;4.30;;;4.00;;
434;SDS011;204;48.942;9.256;2023-09-07T12:58:33;4.60;;;4.30;;
434;SDS011;204;48.942;9.256;2023-09-07T13:00:59;4.70;;;4.20;;
434;SDS011;204;48.942;9.256;2023-09-07T13:03:24;5.00;;;4.70;;
434;SDS011;204;48.942;9.256;2023-09-07T13:05:50;5.97;;;4.30;;
434;SDS011;204;48.942;9.256;2023-09-07T13:08:15;4.70;;;4.40;;
434;SDS011;204;48.942;9.256;2023-09-07T13:10:41;4.77;;;4.47;;
434;SDS011;204;48.942;9.256;2023-09-07T13:13:06;6.67;;;4.60;;
434;SDS011;204;48.942;9.256;2023-09-07T13:15:32;4.83;;;4.13;;
434;SDS011;204;48.942;9.256;2023-09-07T13:17:58;4.60;;;4.33;;
434;SDS011;204;48.942;9.256;2023-09-07T13:20:24;4.80;;;4.50;;
434;SDS011;204;48.942;9.256;2023-09-07T13:22:49;4.87;;;4.57;;
434;SDS011;204;48.942;9.256;2023-09-07T13:25:15;4.53;;;4.23;;
434;SDS011;204;48.942;9.256;2023-09-07T13:27:41;4.77;;;4.50;;
434;SDS011;204;48.942;9.256;2023-09-07T13:30:06;5.27;;;4.50;;
434;SDS011;204;48.942;9.256;2023-09-07T13:32:37;4.90;;;4.63;;
434;SDS011;204;48.942;9.256;2023-09-07T13:35:03;5.03;;;4.73;;
434;SDS011;204;48.942;9.256;2023-09-07T13:37:29;4.30;;;4.00;;
434;SDS011;204;48.942;9.256;2023-09-07T13:39:55;6.00;;;4.17;;
434;SDS011;204;48.942;9.256;2023-09-07T13:42:21;5.50;;;5.17;;
434;SDS011;204;48.942;9.256;2023-09-07T13:44:46;5.13;;;4.83;;
434;SDS011;204;48.942;9.256;2023-09-07T13:47:12;4.33;;;4.03;;
434;SDS011;204;48.942;9.256;2023-09-07T13:49:38;5.23;;;4.93;;
434;SDS011;204;48.942;9.256;2023-09-07T13:52:04;5.27;;;4.63;;
434;SDS011;204;48.942;9.256;2023-09-07T13:54:29;4.30;;;4.00;;
434;SDS011;204;48.942;9.256;2023-09-07T13:56:55;4.10;;;3.90;;
434;SDS011;204;48.942;9.256;2023-09-07T13:59:21;4.50;;;4.20;;
434;SDS011;204;48.942;9.256;2023-09-07T14:01:46;4.03;;;3.90;;
434;SDS011;204;48.942;9.256;2023-09-07T14:04:14;4.27;;;3.90;;
434;SDS011;204;48.942;9.256;2023-09-07T14:06:39;4.10;;;3.90;;
434;SDS011;204;48.942;9.256;2023-09-07T14:09:05;3.67;;;3.47;;
434;SDS011;204;48.942;9.256;2023-09-07T14:11:31;4.70;;;4.40;;
434;SDS011;204;48.942;9.256;2023-09-07T14:13:58;6.23;;;4.27;;
434;SDS011;204;48.942;9.256;2023-09-07T14:16:24;4.10;;;3.33;;
434;SDS011;204;48.942;9.256;2023-09-07T14:18:49;4.47;;;4.17;;
434;SDS011;204;48.942;9.256;2023-09-07T14:21:15;3.93;;;3.73;;
434;SDS011;204;48.942;9.256;2023-09-07T14:23:41;5.53;;;5.23;;
434;SDS011;204;48.942;9.256;2023-09-07T14:26:10;3.77;;;3.67;;
434;SDS011;204;48.942;9.256;2023-09-07T14:28:36;5.83;;;4.10;;
434;SDS011;204;48.942;9.256;2023-09-07T14:31:03;5.20;;;4.30;;
434;SDS011;204;48.942;9.256;2023-09-07T14:33:31;5.70;;;3.90;;
434;SDS011;204;48.942;9.256;2023-09-07T14:35:57;3.83;;;3.53;;
434;SDS011;204;48.942;9.256;2023-09-07T14:38:23;5.40;;;4.47;;
434;SDS011;204;48.942;9.256;2023-09-07T14:40:51;3.90;;;3.70;;
434;SDS011;204;48.942;9.256;2023-09-07T14:43:19;3.73;;;3.30;;
434;SDS011;204;48.942;9.256;2023-09-07T14:45:45;5.77;;;4.30;;
434;SDS011;204;48.942;9.256;2023-09-07T14:48:11;4.67;;;4.30;;
434;SDS011;204;48.942;9.256;2023-09-07T14:50:37;4.33;;;4.07;;
434;SDS011;204;48.942;9.256;2023-09-07T14:53:03;3.30;;;3.13;;
434;SDS011;204;48.942;9.256;2023-09-07T14:55:28;3.60;;;3.40;;
434;SDS011;204;48.942;9.256;2023-09-07T14:57:55;4.43;;;3.83;;
434;SDS011;204;48.942;9.256;2023-09-07T15:00:20;3.83;;;3.63;;
434;SDS011;204;48.942;9.256;2023-09-07T15:02:47;4.13;;;3.93;;
434;SDS011;204;48.942;9.256;2023-09-07T15:05:13;4.00;;;3.80;;
434;SDS011;204;48.942;9.256;2023-09-07T15:07:38;4.10;;;3.90;;
434;SDS011;204;48.942;9.256;2023-09-07T15:10:04;4.00;;;3.80;;
434;SDS011;204;48.942;9.256;2023-09-07T15:12:30;7.13;;;4.20;;
434;SDS011;204;48.942;9.256;2023-09-07T15:14:55;4.30;;;4.00;;
434;SDS011;204;48.942;9.256;2023-09-07T15:17:21;4.40;;;3.70;;
434;SDS011;204;48.942;9.256;2023-09-07T15:19:46;5.77;;;4.13;;
434;SDS011;204;48.942;9.256;2023-09-07T15:22:12;3.90;;;3.73;;
434;SDS011;204;48.942;9.256;2023-09-07T15:24:38;4.03;;;3.83;;
434;SDS011;204;48.942;9.256;2023-09-07T15:27:07;4.83;;;4.53;;
434;SDS011;204;48.942;9.256;2023-09-07T15:29:34;2.90;;;2.80;;
434;SDS011;204;48.942;9.256;2023-09-07T15:31:59;5.30;;;3.60;;
434;SDS011;204;48.942;9.256;2023-09-07T15:34:25;8.60;;;4.10;;
434;SDS011;204;48.942;9.256;2023-09-07T15:36:50;4.63;;;4.33;;